Newcastle, UT (84756)

5:50 PM MDT on May 03, 2015 (GMT -0600)
APRSWXNET | | Change Station
CLOSE
Current Station
Personal Weather Station
Location: Enterprise, UT
Elevation: 5337 ft
Nearby Weather Stations

Elev 5337 ft 37.57 °N, 113.71 °W | Updated 29 minutes ago

Partly Cloudy
Partly Cloudy
72 °F
Feels Like 76 °F
N
9
Wind Variable Wind from SSW
Gusts 13.0 mph

Today
High -- | Low -- °F
--% Chance of Precip.
Yesterday
High -- | Low -- °F
Precip. -- in
6:36 AM 8:27 PM
Full, 100% visible
Pressure 29.77 in
Visibility 10.0 miles
Clouds Clear
Heat Index 76 °F
Dew Point 36 °F
Humidity 27%
Rainfall in
Snow Depth Not available.
UV 6 out of 12
Pollen 8.10 out of 12
Air Quality Not available.
Flu Activity Regional
METAR KCDC 032253Z AUTO 20010KT 10SM CLR 21/M01 A2994 RMK AO2 LTG DSNT NE AND SE SLP080 T02111011

More Conditions Fewer Conditions

Pressure 29.77 in
Visibility 10.0 miles
Clouds Clear
Heat Index 76 °F
Dew Point 36 °F
Humidity 27%
Rainfall in
Snow Depth Not available.
UV 6 out of 12
Pollen 8.10 out of 12
Air Quality Not available.
Flu Activity Regional
METAR KCDC 032253Z AUTO 20010KT 10SM CLR 21/M01 A2994 RMK AO2 LTG DSNT NE AND SE SLP080 T02111011

More Conditions Fewer Conditions

Nepal has a long way to go to dig out and rebuild from a devastating earthquake. We have teamed up with several charities and organizations to make contributing to the relief effort as easy as possible.
How you can help: Portlight Strategies | Red Cross
Nowcast | as of 4:44 PM MDT on May 3, 2015

Scattered showers and isolated thunderstorms will continue across portions of southern and central Utah this afternoon. The strongest storms at 435 PM were northwest of Parowan...west of Alton...and southeast of Orderville. Some of these storms will produce strong gusty winds...dangerous cloud-to-ground lightning...and brief heavy rain.

×

10-Day Weather Forecast

Almanac

Astronomy

May. 03, 2015 Rise Set
Actual Time
Civil Twilight
Nautical Twilight
Astronomical Twilight
Moon
Length of Visible Light
Length of Day
Tomorrow will be .
, % of the Moon is Illuminated

Today's Extremes

State Highs State Lows

Community

WunderPhotos

Upload Photos

1,818,422 photos uploaded!

WunderBlogs® & News

Nearby

Air Quality

  Air Quality AQ Index Pollutant
Not available.

Snow Depth

Station Depth Elevation

Earthquake Activity

City Distance Mag. Time & Date
Minimum magnitude displayed is 2.5.

Coastal Water Temperatures

Place Temperature

Stations

Nearby Weather Stations

Station Location Temp. Windchill Dew Point Humidity Wind Precip. Elev Updated Type